weather.gov     
National Weather Service

Terminal Aerodrome Forecast
NWS Homepage
This page is being discontinued on March 12, 2014.
The same data is available at this site. Please update your bookmarks.
Thank you, and we apologize for the inconvenience.
Please send an email to SR-SRH.Webmaster@noaa.gov with any concerns.


Current Version
Previous Version:    01  02  03  04  05  06  07  08  09  10  11  12  13  14  15  16  17  18  19  20  21  22  23  24  25  26  27  
[Printable]
988
FTUS43 KDVN 211100
TAFBRL
TAF
KBRL 211120Z 2112/2212 24007KT P6SM SCT120 OVC150
     FM211500 26010KT P6SM VCSH FEW050 OVC080
     FM212100 29011G15KT 6SM -RA BR VCTS BKN040CB OVC070
     FM220100 33012KT P6SM SCT040 BKN070
     FM220400 35008KT P6SM FEW070=


U.S. Dept. of Commerce
NOAA National Weather Service
1325 East West Highway
Silver Spring, MD 20910
E-mail: w-nws.webmaster@noaa.gov
Page last modified: May 16, 2007
NATIONAL WEATHER SERVICE: for Safety, for Work, for Fun - FOR LIFE